Rosedale, Indiana
Current Conditions -  °F | °C
As of 7:53 PM on Monday 20 Oct 2014 (Local Time) from KHUF Reporting Station
Few Clouds Few Clouds  
Wind Chill: 63°   Ceiling: Unl
Heat Index: 63°   Visibility: 10mi
Dew Point: 45°   Wind: 7mph
Humidity: 52%   Direction: 300°WNW
Pressure: 29.92"   Gusts: NA
Location:  39.62°N, 87.28°W
Report Text: KHUF 202353Z 30006KT 10SM FEW055 17/07 A2992 RMK AO2 SLP132 T01720072 10217 20172 53021
Loading
Personal Weather Stations






























Interactive Weather Map
Tropical Storm Tracking
New forecast layout! Learn more

10-Day Weather Forecast

Advertisements
Track Severe Weather on mobile